Aviation Digital Data Service (ADDS)

Output produced by METARs form (1334 UTC 08 May 2021)
found at http://aviationweather.gov/metar/data/
 
KCXO 081120Z 0812/0912 VRB03KT P6SM MIFG FEW015 FEW025 
     FM081500 17014G24KT P6SM FEW035 
     FM081800 16016G26KT P6SM SCT040 
     FM090200 16015KT P6SM SCT025 
     FM090500 16014KT P6SM BKN025 
     FM090900 16011KT P6SM BKN015